Watts Bar Observed Data For Previous 48 Hours

Caption
Day and Hour Reservoir Elevation (behind dam)* Tailwater Elevation (below dam)* Average Hourly Discharge*
11/17/2017 2 AM EST 738.70 679.44 20,564
11/17/2017 3 AM EST 738.67 679.43 20,382
11/17/2017 4 AM EST 738.65 679.42 20,347
11/17/2017 5 AM EST 738.69 679.49 20,387
11/17/2017 6 AM EST 738.58 681.54 26,180
11/17/2017 7 AM EST 738.57 681.87 45,788
11/17/2017 8 AM EST 738.61 682.05 45,996
11/17/2017 9 AM EST 738.60 680.58 26,369
11/17/2017 10 AM EST 738.64 680.17 25,238
11/17/2017 11 AM EST 738.76 680.00 25,350
11/17/2017 12 PM EST 738.82 679.88 25,327
11/17/2017 1 PM EST 738.81 679.85 25,329
11/17/2017 2 PM EST 738.85 679.88 25,377
11/17/2017 3 PM EST 738.85 679.91 25,358
11/17/2017 4 PM EST 738.81 679.90 25,435
11/17/2017 5 PM EST 738.83 679.84 25,384
11/17/2017 6 PM EST 738.84 679.81 25,368
11/17/2017 7 PM EST 738.84 679.78 25,431
11/17/2017 8 PM EST 738.84 679.75 25,446
11/17/2017 9 PM EST 738.81 679.71 25,362
11/17/2017 10 PM EST 738.83 678.72 15,811
11/17/2017 11 PM EST 738.87 678.66 15,383
11/18/2017 12 AM EST 738.91 678.71 15,423
11/18/2017 1 AM EST 738.91 678.85 15,525
11/18/2017 2 AM EST 738.88 679.73 26,301
11/18/2017 3 AM EST 738.86 679.80 26,664
11/18/2017 4 AM EST 738.86 679.84 26,668
11/18/2017 5 AM EST 738.85 679.81 26,691
11/18/2017 6 AM EST 738.88 679.75 26,705
11/18/2017 7 AM EST 738.88 679.76 26,608
11/18/2017 8 AM EST 738.85 679.77 26,662
11/18/2017 9 AM EST 738.82 679.81 26,670
11/18/2017 10 AM EST 738.79 679.85 26,709
11/18/2017 11 AM EST 738.78 679.84 26,759
11/18/2017 12 PM EST 738.76 679.73 26,605
11/18/2017 1 PM EST 738.79 679.68 26,678
11/18/2017 2 PM EST 738.81 679.65 26,643
11/18/2017 3 PM EST 738.83 679.63 26,602
11/18/2017 4 PM EST 738.85 679.61 26,585
11/18/2017 5 PM EST 738.84 679.62 26,557
11/18/2017 6 PM EST 738.80 679.57 26,556
11/18/2017 7 PM EST 738.80 679.52 26,540
11/18/2017 8 PM EST 738.76 679.49 26,494
11/18/2017 9 PM EST 738.81 679.48 26,573
11/18/2017 10 PM EST 738.88 679.41 26,439
11/18/2017 11 PM EST 738.82 679.37 26,459
11/19/2017 12 AM EST 738.78 679.33 26,425
11/19/2017 1 AM EST 738.86 679.34 26,404
11/19/2017 2 AM EST 738.87 679.35 24,960
11/19/2017 3 AM EST 738.85 679.39 25,429
11/19/2017 4 AM EST 738.90 679.33 25,475

Elevations are in feet above sea level. Discharges are in cubic feet per second and are reported at the end of the hour.